createdAt,value
2023-03-13T00:01:24.933Z,10.00
2023-03-13T00:03:52.384Z,10.00
2023-03-13T00:06:19.154Z,9.96
2023-03-13T00:08:46.066Z,10.00
2023-03-13T00:11:14.189Z,10.12
2023-03-13T00:13:41.357Z,10.12
2023-03-13T00:16:10.911Z,10.09
2023-03-13T00:18:37.843Z,10.14
2023-03-13T00:21:07.571Z,10.13
2023-03-13T00:23:35.819Z,10.25
2023-03-13T00:26:05.627Z,10.19
2023-03-13T00:28:33.728Z,10.17
2023-03-13T00:31:07.125Z,10.20
2023-03-13T00:33:35.221Z,10.18
2023-03-13T00:36:05.024Z,10.02
2023-03-13T00:38:32.846Z,9.98
2023-03-13T00:41:05.139Z,10.05
2023-03-13T00:43:32.302Z,10.05
2023-03-13T00:46:00.278Z,10.07
2023-03-13T00:48:27.277Z,10.01
2023-03-13T00:50:54.463Z,10.01
2023-03-13T00:53:21.423Z,9.94
2023-03-13T00:56:03.843Z,9.96
2023-03-13T00:58:33.691Z,9.94
2023-03-13T01:01:16.317Z,9.98
2023-03-13T01:03:45.507Z,9.97
2023-03-13T01:06:15.137Z,9.95
2023-03-13T01:08:42.587Z,9.95
2023-03-13T01:11:18.838Z,9.97
2023-03-13T01:13:46.771Z,9.94
2023-03-13T01:16:19.636Z,9.95
2023-03-13T01:18:55.846Z,9.99
2023-03-13T01:21:23.921Z,9.98
2023-03-13T01:23:51.738Z,10.00
2023-03-13T01:26:18.707Z,9.95
2023-03-13T01:28:45.673Z,9.98
2023-03-13T01:31:21.103Z,9.95
2023-03-13T01:33:52.471Z,9.97
2023-03-13T01:36:19.310Z,9.85
2023-03-13T01:38:54.656Z,9.86
2023-03-13T01:41:23.155Z,9.83
2023-03-13T01:43:50.794Z,9.84
2023-03-13T01:46:21.800Z,9.75
2023-03-13T01:49:00.174Z,9.70
2023-03-13T01:51:35.183Z,9.59
2023-03-13T01:54:09.996Z,9.54
2023-03-13T01:56:51.898Z,9.56
2023-03-13T01:59:23.226Z,9.51
2023-03-13T02:01:52.610Z,9.48
2023-03-13T02:04:20.308Z,9.43
2023-03-13T02:06:49.733Z,9.46
2023-03-13T02:09:21.362Z,9.46
2023-03-13T02:11:52.745Z,9.41
2023-03-13T02:14:22.514Z,9.50
2023-03-13T02:16:52.182Z,9.51
2023-03-13T02:19:40.083Z,9.48
2023-03-13T02:22:24.069Z,9.51
2023-03-13T02:25:13.304Z,9.50
2023-03-13T02:27:42.072Z,9.51
2023-03-13T02:30:10.058Z,9.50
2023-03-13T02:32:37.311Z,9.57
2023-03-13T02:35:08.358Z,9.59
2023-03-13T02:37:36.376Z,9.57
2023-03-13T02:40:12.237Z,9.58
2023-03-13T02:42:42.405Z,9.56
2023-03-13T02:45:10.565Z,9.57
2023-03-13T02:47:37.128Z,9.59
2023-03-13T02:50:03.918Z,9.64
2023-03-13T02:52:39.290Z,9.65
2023-03-13T02:55:28.984Z,9.66
2023-03-13T02:57:55.573Z,9.66
2023-03-13T03:00:27.268Z,9.61
2023-03-13T03:02:56.022Z,9.62
2023-03-13T03:05:23.011Z,9.63
2023-03-13T03:07:50.680Z,9.63
2023-03-13T03:10:18.518Z,9.62
2023-03-13T03:12:45.605Z,9.58
2023-03-13T03:15:12.977Z,9.51
2023-03-13T03:17:43.945Z,9.50
2023-03-13T03:20:12.320Z,9.49
2023-03-13T03:22:42.182Z,9.51
2023-03-13T03:25:09.732Z,9.50
2023-03-13T03:27:36.778Z,9.52
2023-03-13T03:30:06.905Z,9.52
2023-03-13T03:32:35.549Z,9.49
2023-03-13T03:35:02.821Z,9.52
2023-03-13T03:37:29.681Z,9.59
2023-03-13T03:39:57.121Z,9.66
2023-03-13T03:42:23.902Z,9.74
2023-03-13T03:44:50.614Z,9.71
2023-03-13T03:47:18.297Z,9.71
2023-03-13T03:49:47.376Z,9.81
2023-03-13T03:52:14.996Z,9.72
2023-03-13T03:54:43.283Z,9.75
2023-03-13T03:57:10.248Z,9.73
2023-03-13T03:59:37.793Z,9.71
2023-03-13T04:02:07.792Z,9.78
2023-03-13T04:04:35.063Z,9.82
2023-03-13T04:07:06.505Z,9.77
2023-03-13T04:09:34.215Z,9.86
2023-03-13T04:12:02.702Z,9.88
2023-03-13T04:14:33.666Z,9.88
2023-03-13T04:17:04.544Z,9.94
2023-03-13T04:19:31.284Z,9.92
2023-03-13T04:21:58.316Z,9.95
2023-03-13T04:24:24.963Z,10.01
2023-03-13T04:26:51.822Z,10.02
2023-03-13T04:29:18.501Z,10.18
2023-03-13T04:32:14.101Z,10.18
2023-03-13T04:35:03.979Z,10.24
2023-03-13T04:37:52.749Z,10.26
2023-03-13T04:40:30.245Z,10.45
2023-03-13T04:43:15.318Z,10.51
2023-03-13T04:46:04.022Z,10.60
2023-03-13T04:49:08.658Z,10.78
2023-03-13T04:51:53.457Z,10.71
2023-03-13T04:54:40.310Z,10.80
2023-03-13T04:57:45.097Z,10.89
2023-03-13T05:00:30.488Z,10.88
2023-03-13T05:03:16.314Z,10.96
2023-03-13T05:06:07.947Z,11.15
2023-03-13T05:08:38.302Z,11.14
2023-03-13T05:11:25.567Z,11.29
2023-03-13T05:14:19.489Z,11.29
2023-03-13T05:17:06.417Z,11.30
2023-03-13T05:19:52.985Z,11.31
2023-03-13T05:22:45.735Z,11.42
2023-03-13T05:25:33.195Z,11.46
2023-03-13T05:28:20.052Z,11.60
2023-03-13T05:30:56.111Z,11.67
2023-03-13T05:33:25.564Z,11.66
2023-03-13T05:36:12.487Z,11.74
2023-03-13T05:38:48.838Z,11.68
2023-03-13T05:41:34.076Z,11.77
2023-03-13T05:44:19.540Z,11.83
2023-03-13T05:47:04.264Z,11.90
2023-03-13T05:49:40.400Z,11.95
2023-03-13T05:52:31.933Z,11.94
2023-03-13T05:54:58.749Z,12.02
2023-03-13T05:57:54.324Z,12.07
2023-03-13T06:00:33.921Z,12.10
2023-03-13T06:03:20.720Z,12.07
2023-03-13T06:05:50.051Z,12.06
2023-03-13T06:08:30.104Z,12.14
2023-03-13T06:11:00.296Z,12.16
2023-03-13T06:13:27.402Z,12.25
2023-03-13T06:15:57.865Z,12.31
2023-03-13T06:18:45.269Z,12.34
2023-03-13T06:21:12.007Z,12.36
2023-03-13T06:23:38.672Z,12.37
2023-03-13T06:26:05.506Z,12.47
2023-03-13T06:28:32.151Z,12.52
2023-03-13T06:31:06.375Z,12.48
2023-03-13T06:33:33.780Z,12.46
2023-03-13T06:36:01.723Z,12.56
2023-03-13T06:38:29.087Z,12.51
2023-03-13T06:40:55.751Z,12.72
2023-03-13T06:43:22.495Z,12.67
2023-03-13T06:45:49.167Z,12.66
2023-03-13T06:48:15.946Z,12.64
2023-03-13T06:50:43.189Z,12.77
2023-03-13T06:53:17.082Z,12.72
2023-03-13T06:55:43.862Z,12.80
2023-03-13T06:58:18.866Z,12.80
2023-03-13T07:00:55.627Z,12.82
2023-03-13T07:03:22.305Z,12.83
2023-03-13T07:05:48.901Z,12.91
2023-03-13T07:08:15.489Z,12.99
2023-03-13T07:10:43.405Z,12.97
2023-03-13T07:13:10.105Z,12.90
2023-03-13T07:15:36.728Z,13.01
2023-03-13T07:18:03.336Z,13.13
2023-03-13T07:20:30.025Z,13.18
2023-03-13T07:22:56.700Z,13.05
2023-03-13T07:25:23.329Z,13.08
2023-03-13T07:27:52.516Z,13.09
2023-03-13T07:30:20.126Z,13.17
2023-03-13T07:32:46.837Z,13.11
2023-03-13T07:35:13.483Z,13.19
2023-03-13T07:37:40.064Z,13.10
2023-03-13T07:40:09.319Z,13.03
2023-03-13T07:42:36.013Z,13.03
2023-03-13T07:45:02.669Z,13.07
2023-03-13T07:47:29.238Z,13.08
2023-03-13T07:49:55.879Z,13.11
2023-03-13T07:52:23.168Z,13.14
2023-03-13T07:54:49.834Z,13.21
2023-03-13T07:57:16.481Z,13.14
2023-03-13T07:59:43.008Z,13.17
2023-03-13T08:02:13.955Z,13.06
2023-03-13T08:04:40.677Z,13.09
2023-03-13T08:07:11.183Z,13.10
2023-03-13T08:09:37.933Z,13.07
2023-03-13T08:12:05.235Z,13.04
2023-03-13T08:14:31.918Z,13.12
2023-03-13T08:16:58.636Z,13.14
2023-03-13T08:19:25.523Z,13.13
2023-03-13T08:21:52.177Z,13.12
2023-03-13T08:24:18.790Z,13.17
2023-03-13T08:26:45.484Z,13.20
2023-03-13T08:29:14.299Z,13.21
2023-03-13T08:31:45.358Z,13.42
2023-03-13T08:34:12.593Z,13.49
2023-03-13T08:36:39.674Z,13.53
2023-03-13T08:39:11.217Z,13.73
2023-03-13T08:41:40.598Z,14.05
2023-03-13T08:44:10.297Z,13.89
2023-03-13T08:46:37.206Z,13.87
2023-03-13T08:49:05.532Z,13.92
2023-03-13T08:51:32.865Z,13.95
2023-03-13T08:53:59.527Z,14.09
2023-03-13T08:56:30.246Z,13.99
2023-03-13T08:58:59.908Z,13.97
2023-03-13T09:01:29.989Z,13.97
2023-03-13T09:03:57.817Z,14.05
2023-03-13T09:06:24.795Z,14.26
2023-03-13T09:08:51.736Z,14.46
2023-03-13T09:11:20.923Z,14.75
2023-03-13T09:13:50.026Z,14.64
2023-03-13T09:16:28.587Z,14.59
2023-03-13T09:18:56.251Z,14.60
2023-03-13T09:21:28.951Z,14.63
2023-03-13T09:23:55.550Z,14.71
2023-03-13T09:26:23.603Z,14.77
2023-03-13T09:28:54.417Z,14.90
2023-03-13T09:31:24.255Z,14.94
2023-03-13T09:33:51.751Z,14.86
2023-03-13T09:36:21.995Z,14.91
2023-03-13T09:38:50.178Z,14.65
2023-03-13T09:41:16.794Z,14.51
2023-03-13T09:43:48.924Z,14.40
2023-03-13T09:46:25.324Z,14.65
2023-03-13T09:49:02.747Z,14.43
2023-03-13T09:51:35.117Z,14.66
2023-03-13T09:54:01.794Z,14.82
2023-03-13T09:56:37.180Z,14.80
2023-03-13T09:59:43.598Z,14.72
2023-03-13T10:02:23.800Z,14.53
2023-03-13T10:04:58.435Z,14.68
2023-03-13T10:07:25.055Z,14.73
2023-03-13T10:09:53.727Z,14.88
2023-03-13T10:12:39.765Z,15.38
2023-03-13T10:15:30.700Z,15.09
2023-03-13T10:17:59.277Z,14.99
2023-03-13T10:20:36.054Z,15.03
2023-03-13T10:23:13.779Z,15.01
2023-03-13T10:25:40.874Z,14.87
2023-03-13T10:28:16.111Z,15.02
2023-03-13T10:30:59.232Z,14.75
2023-03-13T10:33:28.535Z,14.68
2023-03-13T10:36:06.571Z,14.57
2023-03-13T10:38:44.276Z,14.51
2023-03-13T10:41:22.792Z,14.37
2023-03-13T10:43:52.329Z,14.22
2023-03-13T10:46:27.935Z,14.17
2023-03-13T10:48:56.697Z,14.13
2023-03-13T10:51:30.337Z,14.01
2023-03-13T10:53:57.236Z,13.94
2023-03-13T10:56:29.149Z,13.87
2023-03-13T10:58:56.459Z,13.92
2023-03-13T11:01:40.950Z,13.94
2023-03-13T11:04:39.750Z,13.80
2023-03-13T11:07:16.900Z,13.71
2023-03-13T11:09:43.471Z,13.55
2023-03-13T11:12:18.975Z,13.72
2023-03-13T11:14:45.974Z,13.63
2023-03-13T11:17:23.956Z,13.50
2023-03-13T11:20:08.047Z,13.49
2023-03-13T11:22:47.788Z,13.52
2023-03-13T11:25:25.898Z,13.47
2023-03-13T11:28:13.448Z,13.40
2023-03-13T11:30:58.803Z,13.40
2023-03-13T11:33:30.242Z,13.37
2023-03-13T11:36:01.404Z,13.42
2023-03-13T11:38:36.509Z,13.44
2023-03-13T11:41:26.225Z,13.44
2023-03-13T11:44:20.311Z,13.47
2023-03-13T11:46:49.688Z,13.47
2023-03-13T11:49:34.997Z,13.47
2023-03-13T11:52:22.903Z,13.46
2023-03-13T11:55:01.762Z,13.44
2023-03-13T11:57:37.967Z,13.56
2023-03-13T12:00:16.804Z,13.60
2023-03-13T12:02:49.821Z,13.45
2023-03-13T12:05:19.985Z,13.62
2023-03-13T12:07:52.820Z,13.61
2023-03-13T12:10:31.104Z,13.55
2023-03-13T12:13:03.761Z,13.56
2023-03-13T12:15:43.444Z,13.59
2023-03-13T12:18:20.478Z,13.57
2023-03-13T12:21:01.807Z,13.67
2023-03-13T12:23:40.167Z,13.64
2023-03-13T12:26:13.141Z,13.54
2023-03-13T12:28:58.713Z,13.46
2023-03-13T12:31:32.124Z,13.46
2023-03-13T12:34:33.909Z,13.38
2023-03-13T12:37:32.234Z,13.54
2023-03-13T12:40:14.561Z,13.62
2023-03-13T12:43:22.029Z,13.62
2023-03-13T12:46:01.701Z,13.69
2023-03-13T12:48:45.540Z,13.73
2023-03-13T12:51:24.537Z,13.72
2023-03-13T12:54:09.715Z,13.73
2023-03-13T12:56:47.355Z,13.66
2023-03-13T12:59:24.624Z,13.71
2023-03-13T13:01:54.854Z,13.67
2023-03-13T13:04:24.964Z,13.65
2023-03-13T13:06:57.740Z,13.75
2023-03-13T13:09:30.819Z,13.76
2023-03-13T13:12:00.881Z,13.81
2023-03-13T13:14:27.445Z,14.00
2023-03-13T13:17:24.409Z,14.23
2023-03-13T13:19:51.444Z,14.31
2023-03-13T13:22:39.646Z,14.45
2023-03-13T13:25:28.342Z,14.55
2023-03-13T13:27:56.093Z,14.70
2023-03-13T13:30:23.889Z,14.79
2023-03-13T13:33:19.657Z,14.99
2023-03-13T13:35:47.505Z,14.97
2023-03-13T13:38:27.143Z,14.98
2023-03-13T13:41:22.242Z,14.86
2023-03-13T13:44:09.989Z,14.96
2023-03-13T13:46:36.765Z,14.96
2023-03-13T13:49:06.790Z,14.94
2023-03-13T13:51:38.204Z,14.89
2023-03-13T13:54:42.393Z,14.88
2023-03-13T13:57:15.877Z,14.86
2023-03-13T13:59:45.461Z,14.85
2023-03-13T14:02:32.213Z,14.85
2023-03-13T14:05:17.659Z,14.73
2023-03-13T14:08:05.930Z,14.75
2023-03-13T14:10:42.356Z,14.72
2023-03-13T14:13:12.004Z,14.88
2023-03-13T14:15:42.880Z,14.88
2023-03-13T14:18:30.294Z,14.89
2023-03-13T14:20:56.809Z,14.95
2023-03-13T14:23:40.033Z,14.98
2023-03-13T14:26:13.476Z,15.05
2023-03-13T14:28:43.675Z,15.07
2023-03-13T14:31:12.285Z,15.16
2023-03-13T14:33:39.215Z,15.22
2023-03-13T14:36:06.129Z,15.21
2023-03-13T14:38:33.609Z,15.26
2023-03-13T14:41:00.324Z,15.23
2023-03-13T14:43:33.863Z,15.34
2023-03-13T14:46:01.428Z,15.34
2023-03-13T14:48:31.925Z,15.37
2023-03-13T14:51:16.038Z,15.29
2023-03-13T14:54:03.086Z,15.23
2023-03-13T14:56:43.325Z,15.24
2023-03-13T14:59:26.034Z,15.19
2023-03-13T15:02:28.153Z,15.20
2023-03-13T15:04:57.453Z,15.23
2023-03-13T15:07:26.774Z,15.20
2023-03-13T15:09:53.605Z,15.12
2023-03-13T15:12:22.766Z,15.20
2023-03-13T15:14:51.328Z,15.16
2023-03-13T15:17:23.857Z,15.17
2023-03-13T15:19:55.886Z,15.21
2023-03-13T15:22:35.239Z,15.29
2023-03-13T15:25:06.982Z,15.46
2023-03-13T15:27:34.659Z,15.40
2023-03-13T15:30:01.272Z,15.39
2023-03-13T15:32:37.152Z,15.37
2023-03-13T15:35:22.188Z,15.40
2023-03-13T15:37:48.917Z,15.43
2023-03-13T15:40:17.005Z,15.41
2023-03-13T15:42:43.651Z,15.50
2023-03-13T15:45:10.544Z,15.51
2023-03-13T15:47:37.482Z,15.50
2023-03-13T15:50:04.928Z,15.49
2023-03-13T15:52:32.348Z,15.59
2023-03-13T15:54:58.946Z,15.75
2023-03-13T15:57:26.678Z,15.59
2023-03-13T15:59:54.407Z,15.87
2023-03-13T16:02:23.282Z,15.87
2023-03-13T16:04:51.103Z,15.77
2023-03-13T16:07:20.632Z,15.65
2023-03-13T16:09:48.020Z,15.60
2023-03-13T16:12:14.709Z,15.72
2023-03-13T16:14:41.284Z,15.56
2023-03-13T16:17:15.363Z,15.61
2023-03-13T16:19:42.646Z,15.49
2023-03-13T16:22:09.532Z,15.56
2023-03-13T16:24:36.274Z,15.48
2023-03-13T16:27:02.968Z,15.56
2023-03-13T16:29:29.581Z,15.53
2023-03-13T16:31:56.211Z,15.54
2023-03-13T16:34:22.836Z,15.39
2023-03-13T16:36:49.539Z,15.31
2023-03-13T16:39:16.634Z,15.29
2023-03-13T16:41:43.379Z,15.27
2023-03-13T16:44:10.326Z,15.24
2023-03-13T16:46:39.456Z,15.16
2023-03-13T16:49:07.726Z,15.21
2023-03-13T16:51:34.413Z,15.19
2023-03-13T16:54:01.049Z,15.12
2023-03-13T16:56:36.440Z,15.21
2023-03-13T16:59:07.663Z,15.17
2023-03-13T17:01:35.334Z,15.09
2023-03-13T17:04:02.274Z,15.16
2023-03-13T17:06:32.910Z,15.13
2023-03-13T17:09:01.644Z,15.16
2023-03-13T17:11:28.926Z,14.98
2023-03-13T17:13:55.839Z,15.01
2023-03-13T17:16:33.570Z,15.07
2023-03-13T17:19:01.325Z,14.95
2023-03-13T17:21:30.132Z,15.04
2023-03-13T17:23:57.028Z,15.02
2023-03-13T17:26:26.886Z,14.89
2023-03-13T17:28:56.159Z,14.96
2023-03-13T17:31:24.456Z,14.95
2023-03-13T17:33:51.555Z,15.07
2023-03-13T17:36:27.228Z,15.06
2023-03-13T17:38:59.354Z,15.03
2023-03-13T17:41:32.067Z,14.95
2023-03-13T17:44:03.880Z,14.97
2023-03-13T17:46:38.697Z,14.90
2023-03-13T17:49:05.503Z,14.93
2023-03-13T17:51:33.362Z,14.85
2023-03-13T17:54:00.698Z,14.79
2023-03-13T17:56:32.704Z,14.77
2023-03-13T17:59:00.741Z,14.76
2023-03-13T18:01:30.250Z,14.60
2023-03-13T18:03:57.031Z,14.65
2023-03-13T18:06:29.576Z,14.54
2023-03-13T18:09:02.880Z,14.63
2023-03-13T18:11:29.601Z,14.56
2023-03-13T18:13:56.375Z,14.55
2023-03-13T18:16:30.468Z,14.46
2023-03-13T18:18:57.549Z,14.49
2023-03-13T18:21:24.641Z,14.42
2023-03-13T18:23:53.009Z,14.39
2023-03-13T18:26:28.674Z,14.35
2023-03-13T18:29:00.119Z,14.29
2023-03-13T18:31:32.496Z,14.32
2023-03-13T18:33:59.450Z,14.26
2023-03-13T18:36:27.056Z,14.33
2023-03-13T18:38:54.164Z,14.45
2023-03-13T18:41:20.874Z,14.29
2023-03-13T18:43:47.534Z,14.26
2023-03-13T18:46:19.773Z,14.24
2023-03-13T18:48:46.658Z,14.25
2023-03-13T18:51:15.497Z,14.10
2023-03-13T18:53:42.440Z,14.14
2023-03-13T18:56:31.120Z,14.09
2023-03-13T18:58:58.888Z,14.09
2023-03-13T19:01:28.264Z,14.20
2023-03-13T19:03:55.005Z,14.07
2023-03-13T19:06:24.589Z,13.96
2023-03-13T19:08:55.760Z,14.04
2023-03-13T19:11:25.462Z,14.09
2023-03-13T19:13:52.201Z,13.99
2023-03-13T19:16:25.604Z,13.94
2023-03-13T19:18:52.367Z,13.92
2023-03-13T19:21:22.509Z,13.88
2023-03-13T19:23:50.138Z,13.96
2023-03-13T19:26:30.207Z,13.90
2023-03-13T19:28:57.404Z,13.89
2023-03-13T19:31:24.280Z,13.87
2023-03-13T19:33:53.518Z,13.80
2023-03-13T19:36:22.467Z,13.85
2023-03-13T19:38:49.412Z,13.80
2023-03-13T19:41:16.958Z,13.73
2023-03-13T19:43:44.396Z,13.74
2023-03-13T19:46:14.080Z,13.71
2023-03-13T19:48:40.714Z,13.79
2023-03-13T19:51:07.289Z,13.62
2023-03-13T19:53:34.735Z,13.49
2023-03-13T19:56:01.415Z,13.50
2023-03-13T19:58:27.964Z,13.50
2023-03-13T20:00:55.351Z,13.47
2023-03-13T20:03:24.074Z,13.44
2023-03-13T20:05:51.443Z,13.39
2023-03-13T20:08:18.136Z,13.41
2023-03-13T20:10:44.655Z,13.34
2023-03-13T20:13:11.236Z,13.31
2023-03-13T20:15:37.862Z,13.27
2023-03-13T20:18:04.789Z,13.15
2023-03-13T20:20:31.533Z,13.07
2023-03-13T20:22:58.121Z,13.06
2023-03-13T20:25:25.302Z,13.03
2023-03-13T20:27:52.240Z,12.95
2023-03-13T20:30:19.069Z,12.88
2023-03-13T20:32:57.083Z,12.89
2023-03-13T20:35:25.710Z,12.81
2023-03-13T20:37:54.640Z,12.80
2023-03-13T20:40:21.343Z,12.73
2023-03-13T20:42:47.993Z,12.54
2023-03-13T20:45:14.706Z,12.68
2023-03-13T20:47:41.431Z,12.54
2023-03-13T20:50:08.726Z,12.54
2023-03-13T20:52:35.525Z,12.54
2023-03-13T20:55:02.228Z,12.40
2023-03-13T20:57:28.867Z,12.35
2023-03-13T20:59:55.475Z,12.34
2023-03-13T21:02:22.462Z,12.33
2023-03-13T21:04:49.177Z,12.29
2023-03-13T21:07:15.714Z,12.16
2023-03-13T21:09:42.382Z,12.20
2023-03-13T21:12:09.858Z,12.11
2023-03-13T21:14:37.309Z,12.02
2023-03-13T21:17:04.281Z,11.98
2023-03-13T21:19:31.064Z,12.01
2023-03-13T21:21:57.766Z,12.01
2023-03-13T21:24:24.314Z,11.85
2023-03-13T21:26:50.973Z,11.78
2023-03-13T21:29:17.925Z,11.91
2023-03-13T21:31:44.568Z,11.87
2023-03-13T21:34:11.493Z,11.83
2023-03-13T21:36:38.115Z,11.88
2023-03-13T21:39:08.301Z,11.89
2023-03-13T21:41:35.424Z,11.79
2023-03-13T21:44:02.692Z,11.92
2023-03-13T21:46:33.259Z,11.85
2023-03-13T21:49:00.829Z,11.76
2023-03-13T21:51:28.382Z,11.78
2023-03-13T21:53:55.284Z,11.77
2023-03-13T21:56:22.383Z,11.78
2023-03-13T21:58:49.044Z,11.73
2023-03-13T22:01:16.103Z,11.64
2023-03-13T22:03:42.913Z,11.62
2023-03-13T22:06:18.545Z,11.58
2023-03-13T22:08:45.499Z,11.63
2023-03-13T22:11:12.246Z,11.69
2023-03-13T22:13:39.202Z,11.64
2023-03-13T22:16:06.364Z,11.51
2023-03-13T22:18:32.990Z,11.48
2023-03-13T22:21:00.414Z,11.41
2023-03-13T22:23:27.169Z,11.37
2023-03-13T22:25:58.818Z,11.37
2023-03-13T22:28:26.320Z,11.29
2023-03-13T22:30:52.915Z,11.25
2023-03-13T22:33:19.536Z,11.33
2023-03-13T22:35:52.596Z,11.33
2023-03-13T22:38:20.543Z,11.26
2023-03-13T22:40:48.322Z,11.18
2023-03-13T22:43:15.063Z,11.12
2023-03-13T22:45:41.682Z,11.15
2023-03-13T22:48:08.296Z,11.18
2023-03-13T22:50:36.310Z,11.16
2023-03-13T22:53:03.366Z,11.16
2023-03-13T22:55:32.191Z,11.13
2023-03-13T22:57:59.266Z,11.08
2023-03-13T23:00:26.249Z,11.06
2023-03-13T23:02:54.753Z,11.10
2023-03-13T23:05:21.640Z,11.28
2023-03-13T23:07:50.427Z,11.30
2023-03-13T23:10:18.452Z,11.27
2023-03-13T23:12:45.107Z,11.09
2023-03-13T23:15:12.122Z,11.10
2023-03-13T23:17:38.879Z,11.28
2023-03-13T23:20:16.256Z,11.23
2023-03-13T23:22:44.868Z,11.15
2023-03-13T23:25:12.841Z,11.12
2023-03-13T23:27:39.608Z,11.09
2023-03-13T23:30:08.634Z,11.16
2023-03-13T23:32:37.594Z,11.14
2023-03-13T23:35:05.483Z,11.18
2023-03-13T23:37:33.392Z,11.29
2023-03-13T23:40:01.244Z,11.34
2023-03-13T23:42:28.698Z,11.31
2023-03-13T23:44:55.244Z,11.29
2023-03-13T23:47:22.051Z,11.34
2023-03-13T23:49:48.762Z,11.31
2023-03-13T23:52:15.349Z,11.42
2023-03-13T23:54:41.946Z,11.42
2023-03-13T23:57:08.563Z,11.55
2023-03-13T23:59:35.121Z,11.46
